createdAt,value
2023-04-03T00:02:09.554Z,1.09
2023-04-03T00:04:37.563Z,1.09
2023-04-03T00:07:05.385Z,1.08
2023-04-03T00:09:33.302Z,1.08
2023-04-03T00:12:01.169Z,1.06
2023-04-03T00:14:29.062Z,1.05
2023-04-03T00:16:57.019Z,1.06
2023-04-03T00:19:24.992Z,1.07
2023-04-03T00:21:53.012Z,1.07
2023-04-03T00:24:23.578Z,1.04
2023-04-03T00:26:51.626Z,1.03
2023-04-03T00:29:22.033Z,1.02
2023-04-03T00:31:58.506Z,1.03
2023-04-03T00:34:31.480Z,1.01
2023-04-03T00:37:02.812Z,0.97
2023-04-03T00:39:42.408Z,0.94
2023-04-03T00:42:12.490Z,0.93
2023-04-03T00:44:40.379Z,0.92
2023-04-03T00:47:09.536Z,0.90
2023-04-03T00:49:38.701Z,0.89
2023-04-03T00:52:10.165Z,0.87
2023-04-03T00:54:42.242Z,0.88
2023-04-03T00:57:25.271Z,0.88
2023-04-03T00:59:57.595Z,0.88
2023-04-03T01:02:33.939Z,0.86
2023-04-03T01:05:02.508Z,0.84
2023-04-03T01:07:32.680Z,0.83
2023-04-03T01:10:02.598Z,0.82
2023-04-03T01:12:33.501Z,0.81
2023-04-03T01:15:03.876Z,0.82
2023-04-03T01:17:46.314Z,0.80
2023-04-03T01:20:24.123Z,0.82
2023-04-03T01:22:52.020Z,0.82
2023-04-03T01:25:23.261Z,0.81
2023-04-03T01:27:51.844Z,0.81
2023-04-03T01:30:32.108Z,0.80
2023-04-03T01:33:03.316Z,0.80
2023-04-03T01:35:38.908Z,0.80
2023-04-03T01:38:07.510Z,0.78
2023-04-03T01:40:35.663Z,0.75
2023-04-03T01:43:08.693Z,0.73
2023-04-03T01:45:39.204Z,0.70
2023-04-03T01:48:07.339Z,0.67
2023-04-03T01:50:35.794Z,0.63
2023-04-03T01:53:07.985Z,0.57
2023-04-03T01:55:44.400Z,0.55
2023-04-03T01:58:25.458Z,0.53
2023-04-03T02:00:54.031Z,0.52
2023-04-03T02:03:26.563Z,0.53
2023-04-03T02:06:03.870Z,0.55
2023-04-03T02:08:34.949Z,0.54
2023-04-03T02:11:07.594Z,0.54
2023-04-03T02:13:38.380Z,0.54
2023-04-03T02:16:12.923Z,0.52
2023-04-03T02:19:05.045Z,0.53
2023-04-03T02:21:53.326Z,0.54
2023-04-03T02:24:28.773Z,0.54
2023-04-03T02:27:16.770Z,0.53
2023-04-03T02:29:44.919Z,0.52
2023-04-03T02:32:19.813Z,0.51
2023-04-03T02:35:04.687Z,0.48
2023-04-03T02:37:36.178Z,0.45
2023-04-03T02:40:17.470Z,0.42
2023-04-03T02:42:49.548Z,0.40
2023-04-03T02:45:17.399Z,0.38
2023-04-03T02:47:45.195Z,0.33
2023-04-03T02:50:16.347Z,0.28
2023-04-03T02:52:44.222Z,0.25
2023-04-03T02:55:14.809Z,0.24
2023-04-03T02:57:42.627Z,0.21
2023-04-03T03:00:10.918Z,0.13
2023-04-03T03:02:41.900Z,0.09
2023-04-03T03:05:09.908Z,0.05
2023-04-03T03:07:38.140Z,0.02
2023-04-03T03:10:06.230Z,0.00
2023-04-03T03:12:34.020Z,-0.02
2023-04-03T03:15:05.359Z,-0.07
2023-04-03T03:17:33.387Z,-0.13
2023-04-03T03:20:06.530Z,-0.19
2023-04-03T03:22:34.748Z,-0.22
2023-04-03T03:25:05.074Z,-0.25
2023-04-03T03:27:35.164Z,-0.27
2023-04-03T03:30:03.308Z,-0.30
2023-04-03T03:32:33.602Z,-0.33
2023-04-03T03:35:04.837Z,-0.35
2023-04-03T03:37:32.599Z,-0.36
2023-04-03T03:40:00.479Z,-0.37
2023-04-03T03:42:28.345Z,-0.39
2023-04-03T03:44:56.144Z,-0.44
2023-04-03T03:47:23.948Z,-0.43
2023-04-03T03:49:54.565Z,-0.44
2023-04-03T03:52:22.492Z,-0.45
2023-04-03T03:54:50.277Z,-0.46
2023-04-03T03:57:21.129Z,-0.49
2023-04-03T03:59:49.061Z,-0.49
2023-04-03T04:02:18.256Z,-0.51
2023-04-03T04:04:46.516Z,-0.53
2023-04-03T04:07:14.383Z,-0.54
2023-04-03T04:09:42.502Z,-0.55
2023-04-03T04:12:10.521Z,-0.55
2023-04-03T04:14:38.732Z,-0.56
2023-04-03T04:17:07.548Z,-0.59
2023-04-03T04:19:37.336Z,-0.61
2023-04-03T04:22:05.574Z,-0.62
2023-04-03T04:24:33.744Z,-0.62
2023-04-03T04:27:03.514Z,-0.62
2023-04-03T04:29:40.860Z,-0.62
2023-04-03T04:32:09.522Z,-0.63
2023-04-03T04:34:37.439Z,-0.63
2023-04-03T04:37:05.391Z,-0.62
2023-04-03T04:39:33.742Z,-0.62
2023-04-03T04:42:02.322Z,-0.65
2023-04-03T04:44:31.739Z,-0.67
2023-04-03T04:47:00.409Z,-0.68
2023-04-03T04:49:28.977Z,-0.69
2023-04-03T04:51:59.450Z,-0.67
2023-04-03T04:54:30.477Z,-0.64
2023-04-03T04:56:59.216Z,-0.63
2023-04-03T04:59:27.913Z,-0.63
2023-04-03T05:01:56.950Z,-0.63
2023-04-03T05:04:24.847Z,-0.65
2023-04-03T05:06:56.645Z,-0.68
2023-04-03T05:09:26.715Z,-0.70
2023-04-03T05:11:54.765Z,-0.70
2023-04-03T05:14:24.714Z,-0.67
2023-04-03T05:16:52.884Z,-0.64
2023-04-03T05:19:21.741Z,-0.58
2023-04-03T05:21:50.242Z,-0.56
2023-04-03T05:24:18.378Z,-0.56
2023-04-03T05:26:46.350Z,-0.56
2023-04-03T05:29:21.985Z,-0.56
2023-04-03T05:31:51.307Z,-0.58
2023-04-03T05:34:19.512Z,-0.56
2023-04-03T05:36:48.575Z,-0.54
2023-04-03T05:39:17.256Z,-0.55
2023-04-03T05:41:51.371Z,-0.54
2023-04-03T05:44:22.419Z,-0.46
2023-04-03T05:46:52.868Z,-0.38
2023-04-03T05:49:20.941Z,-0.29
2023-04-03T05:51:51.100Z,-0.20
2023-04-03T05:54:26.376Z,-0.09
2023-04-03T05:56:57.389Z,0.01
2023-04-03T05:59:28.767Z,0.08
2023-04-03T06:01:58.549Z,0.13
2023-04-03T06:04:26.795Z,0.16
2023-04-03T06:06:58.925Z,0.17
2023-04-03T06:09:46.885Z,0.13
2023-04-03T06:12:35.114Z,0.13
2023-04-03T06:15:03.619Z,0.10
2023-04-03T06:17:38.703Z,0.06
2023-04-03T06:20:15.800Z,0.00
2023-04-03T06:23:02.004Z,-0.07
2023-04-03T06:25:41.875Z,-0.15
2023-04-03T06:28:10.311Z,-0.18
2023-04-03T06:30:38.388Z,-0.20
2023-04-03T06:33:06.524Z,-0.20
2023-04-03T06:35:34.534Z,-0.22
2023-04-03T06:38:05.154Z,-0.22
2023-04-03T06:40:40.729Z,-0.22
2023-04-03T06:43:11.008Z,-0.23
2023-04-03T06:45:41.728Z,-0.24
2023-04-03T06:48:09.770Z,-0.22
2023-04-03T06:50:40.574Z,-0.20
2023-04-03T06:53:08.446Z,-0.16
2023-04-03T06:55:36.809Z,-0.12
2023-04-03T06:58:07.358Z,-0.12
2023-04-03T07:00:35.490Z,-0.14
2023-04-03T07:03:06.532Z,-0.09
2023-04-03T07:05:34.546Z,-0.06
2023-04-03T07:08:02.420Z,0.04
2023-04-03T07:10:30.354Z,0.16
2023-04-03T07:12:58.164Z,0.23
2023-04-03T07:15:26.181Z,0.27
2023-04-03T07:17:53.948Z,0.32
2023-04-03T07:20:21.793Z,0.37
2023-04-03T07:22:49.733Z,0.43
2023-04-03T07:25:17.740Z,0.53
2023-04-03T07:27:45.604Z,0.62
2023-04-03T07:30:16.246Z,0.69
2023-04-03T07:32:44.900Z,0.73
2023-04-03T07:35:13.244Z,0.72
2023-04-03T07:37:41.133Z,0.70
2023-04-03T07:40:09.223Z,0.72
2023-04-03T07:42:36.977Z,0.80
2023-04-03T07:45:05.290Z,0.85
2023-04-03T07:47:33.250Z,0.91
2023-04-03T07:50:01.124Z,1.03
2023-04-03T07:52:29.129Z,1.19
2023-04-03T07:54:57.022Z,1.36
2023-04-03T07:57:24.851Z,1.49
2023-04-03T07:59:53.060Z,1.59
2023-04-03T08:02:20.874Z,1.73
2023-04-03T08:04:49.127Z,1.93
2023-04-03T08:07:17.269Z,2.18
2023-04-03T08:09:45.158Z,2.43
2023-04-03T08:12:13.144Z,2.58
2023-04-03T08:14:41.175Z,2.72
2023-04-03T08:17:09.316Z,2.79
2023-04-03T08:19:37.244Z,2.77
2023-04-03T08:22:05.276Z,2.75
2023-04-03T08:24:33.952Z,2.78
2023-04-03T08:27:01.973Z,2.83
2023-04-03T08:29:30.145Z,2.89
2023-04-03T08:32:03.537Z,2.83
2023-04-03T08:34:32.109Z,2.77
2023-04-03T08:37:03.195Z,2.74
2023-04-03T08:39:31.091Z,2.80
2023-04-03T08:42:04.102Z,2.85
2023-04-03T08:44:47.603Z,2.83
2023-04-03T08:47:21.676Z,2.89
2023-04-03T08:49:52.382Z,2.98
2023-04-03T08:52:44.778Z,2.98
2023-04-03T08:55:31.356Z,3.14
2023-04-03T08:58:04.170Z,3.32
2023-04-03T09:00:59.264Z,3.56
2023-04-03T09:03:37.649Z,3.84
2023-04-03T09:06:14.806Z,4.00
2023-04-03T09:08:47.124Z,3.96
2023-04-03T09:11:19.445Z,4.01
2023-04-03T09:13:53.037Z,3.97
2023-04-03T09:16:26.016Z,3.83
2023-04-03T09:19:03.397Z,3.79
2023-04-03T09:21:37.810Z,3.80
2023-04-03T09:24:07.270Z,3.72
2023-04-03T09:26:52.374Z,3.66
2023-04-03T09:29:35.287Z,3.76
2023-04-03T09:32:10.776Z,3.92
2023-04-03T09:35:18.881Z,4.23
2023-04-03T09:37:52.496Z,4.50
2023-04-03T09:40:46.831Z,4.89
2023-04-03T09:43:18.206Z,5.15
2023-04-03T09:45:46.768Z,5.31
2023-04-03T09:48:30.537Z,5.60
2023-04-03T09:50:59.851Z,6.13
2023-04-03T09:53:51.543Z,6.87
2023-04-03T09:56:29.394Z,7.32
2023-04-03T09:59:21.007Z,7.53
2023-04-03T10:02:00.309Z,8.03
2023-04-03T10:04:38.001Z,8.50
2023-04-03T10:07:41.211Z,8.80
2023-04-03T10:10:25.154Z,9.02
2023-04-03T10:13:24.835Z,9.80
2023-04-03T10:16:18.343Z,9.99
2023-04-03T10:19:22.719Z,9.31
2023-04-03T10:22:40.153Z,8.74
2023-04-03T10:25:33.562Z,8.06
2023-04-03T10:28:15.280Z,7.78
2023-04-03T10:30:57.340Z,8.22
2023-04-03T10:33:54.188Z,8.37
2023-04-03T10:36:48.078Z,8.24
2023-04-03T10:39:42.555Z,8.33
2023-04-03T10:42:36.312Z,9.71
2023-04-03T10:45:32.100Z,10.34
2023-04-03T10:48:14.013Z,10.48
2023-04-03T10:50:54.504Z,10.11
2023-04-03T10:53:52.890Z,10.83
2023-04-03T10:57:10.855Z,10.71
2023-04-03T11:00:08.656Z,9.75
2023-04-03T11:03:14.329Z,9.44
2023-04-03T11:05:46.662Z,11.05
2023-04-03T11:08:50.919Z,12.57
2023-04-03T11:11:44.035Z,13.40
2023-04-03T11:14:36.246Z,12.68
2023-04-03T11:17:19.258Z,11.76
2023-04-03T11:19:58.420Z,10.59
2023-04-03T11:22:35.718Z,9.80
2023-04-03T11:25:11.033Z,10.04
2023-04-03T11:27:57.624Z,9.82
2023-04-03T11:30:35.252Z,9.38
2023-04-03T11:33:15.025Z,9.57
2023-04-03T11:35:46.218Z,10.12
2023-04-03T11:38:18.604Z,11.87
2023-04-03T11:40:59.435Z,13.66
2023-04-03T11:43:31.135Z,15.14
2023-04-03T11:46:19.880Z,15.30
2023-04-03T11:49:01.238Z,15.54
2023-04-03T11:51:32.269Z,15.03
2023-04-03T11:54:24.992Z,14.33
2023-04-03T11:57:44.945Z,14.27
2023-04-03T12:00:31.429Z,13.34
2023-04-03T12:03:00.529Z,12.21
2023-04-03T12:05:43.058Z,10.99
2023-04-03T12:08:17.334Z,9.91
2023-04-03T12:11:05.414Z,9.38
2023-04-03T12:13:33.656Z,9.34
2023-04-03T12:16:01.995Z,10.11
2023-04-03T12:18:49.147Z,11.20
2023-04-03T12:21:32.466Z,13.57
2023-04-03T12:24:20.742Z,13.17
2023-04-03T12:27:20.897Z,13.53
2023-04-03T12:30:26.828Z,16.02
2023-04-03T12:33:18.645Z,17.72
2023-04-03T12:35:55.995Z,17.84
2023-04-03T12:38:50.221Z,17.32
2023-04-03T12:41:18.290Z,16.20
2023-04-03T12:43:55.366Z,14.29
2023-04-03T12:46:39.131Z,12.48
2023-04-03T12:49:16.016Z,11.46
2023-04-03T12:51:48.843Z,13.34
2023-04-03T12:54:37.527Z,15.18
2023-04-03T12:57:18.798Z,14.11
2023-04-03T12:59:49.826Z,12.15
2023-04-03T13:02:23.125Z,10.70
2023-04-03T13:04:55.918Z,10.74
2023-04-03T13:07:30.870Z,12.19
2023-04-03T13:10:16.637Z,14.20
2023-04-03T13:12:55.686Z,13.05
2023-04-03T13:15:30.484Z,11.48
2023-04-03T13:17:59.043Z,10.46
2023-04-03T13:20:34.435Z,10.50
2023-04-03T13:23:16.093Z,13.20
2023-04-03T13:25:50.643Z,14.32
2023-04-03T13:28:21.104Z,12.75
2023-04-03T13:31:07.089Z,10.97
2023-04-03T13:33:36.301Z,9.35
2023-04-03T13:36:06.610Z,8.33
2023-04-03T13:38:35.462Z,7.79
2023-04-03T13:41:23.664Z,9.05
2023-04-03T13:44:06.595Z,11.60
2023-04-03T13:47:01.228Z,13.99
2023-04-03T13:49:34.541Z,13.88
2023-04-03T13:52:24.433Z,14.05
2023-04-03T13:55:26.582Z,12.51
2023-04-03T13:58:15.321Z,13.16
2023-04-03T14:01:23.615Z,13.19
2023-04-03T14:04:22.007Z,14.78
2023-04-03T14:07:21.275Z,14.99
2023-04-03T14:09:55.614Z,13.33
2023-04-03T14:12:52.875Z,11.63
2023-04-03T14:15:25.832Z,10.15
2023-04-03T14:18:06.641Z,9.02
2023-04-03T14:20:39.673Z,8.63
2023-04-03T14:23:11.784Z,9.47
2023-04-03T14:26:10.916Z,10.78
2023-04-03T14:28:59.178Z,11.04
2023-04-03T14:32:11.582Z,10.42
2023-04-03T14:34:45.299Z,9.31
2023-04-03T14:37:16.660Z,8.40
2023-04-03T14:39:44.958Z,7.57
2023-04-03T14:42:33.988Z,6.85
2023-04-03T14:45:10.180Z,6.46
2023-04-03T14:47:51.087Z,6.39
2023-04-03T14:50:20.482Z,6.54
2023-04-03T14:52:57.153Z,6.79
2023-04-03T14:55:34.119Z,6.80
2023-04-03T14:58:02.117Z,6.56
2023-04-03T15:00:29.925Z,6.16
2023-04-03T15:03:01.001Z,5.86
2023-04-03T15:05:29.436Z,5.63
2023-04-03T15:07:58.582Z,5.44
2023-04-03T15:10:29.255Z,5.26
2023-04-03T15:12:57.723Z,5.06
2023-04-03T15:15:29.217Z,4.86
2023-04-03T15:17:58.125Z,4.71
2023-04-03T15:20:27.790Z,4.61
2023-04-03T15:22:55.610Z,4.52
2023-04-03T15:25:24.154Z,4.39
2023-04-03T15:27:52.346Z,4.28
2023-04-03T15:30:20.333Z,4.20
2023-04-03T15:32:48.715Z,4.21
2023-04-03T15:35:16.682Z,4.20
2023-04-03T15:37:44.615Z,4.17
2023-04-03T15:40:12.881Z,4.20
2023-04-03T15:42:40.885Z,4.15
2023-04-03T15:45:09.107Z,4.05
2023-04-03T15:47:37.214Z,3.98
2023-04-03T15:50:05.902Z,3.93
2023-04-03T15:52:34.314Z,3.91
2023-04-03T15:55:02.280Z,3.86
2023-04-03T16:00:03.186Z,3.77
2023-04-03T16:02:37.073Z,3.72
2023-04-03T16:05:05.348Z,3.65
2023-04-03T16:07:33.195Z,3.59
2023-04-03T16:10:01.288Z,3.52
2023-04-03T16:12:29.640Z,3.45
2023-04-03T16:14:57.475Z,3.40
2023-04-03T16:17:26.916Z,3.37
2023-04-03T16:19:55.667Z,3.31
2023-04-03T16:22:27.220Z,3.23
2023-04-03T16:24:55.167Z,3.14
2023-04-03T16:27:23.373Z,3.05
2023-04-03T16:29:51.417Z,3.00
2023-04-03T16:32:19.996Z,2.92
2023-04-03T16:34:48.095Z,2.83
2023-04-03T16:37:16.472Z,2.77
2023-04-03T16:39:44.878Z,2.72
2023-04-03T16:42:13.226Z,2.67
2023-04-03T16:44:41.074Z,2.64
2023-04-03T16:47:09.374Z,2.61
2023-04-03T16:49:37.425Z,2.60
2023-04-03T16:52:06.129Z,2.56
2023-04-03T16:54:34.858Z,2.50
2023-04-03T16:57:02.691Z,2.42
2023-04-03T16:59:30.529Z,2.36
2023-04-03T17:01:58.469Z,2.29
2023-04-03T17:04:26.459Z,2.22
2023-04-03T17:06:55.294Z,2.17
2023-04-03T17:12:09.192Z,2.14
2023-04-03T17:14:40.315Z,2.13
2023-04-03T17:17:08.610Z,2.09
2023-04-03T17:19:38.143Z,2.06
2023-04-03T17:22:06.135Z,2.02
2023-04-03T17:24:34.436Z,2.00
2023-04-03T17:27:02.664Z,1.98
2023-04-03T17:29:30.476Z,1.94
2023-04-03T17:31:58.684Z,1.92
2023-04-03T17:34:26.973Z,1.87
2023-04-03T17:36:55.602Z,1.84
2023-04-03T17:39:26.661Z,1.81
2023-04-03T17:41:54.773Z,1.78
2023-04-03T17:44:22.783Z,1.75
2023-04-03T17:46:51.174Z,1.74
2023-04-03T17:49:19.653Z,1.73
2023-04-03T17:51:47.942Z,1.72
2023-04-03T17:54:16.316Z,1.70
2023-04-03T17:56:44.660Z,1.67
2023-04-03T17:59:13.228Z,1.66
2023-04-03T18:01:45.823Z,1.64
2023-04-03T18:04:16.749Z,1.63
2023-04-03T18:06:49.944Z,1.62
2023-04-03T18:09:21.945Z,1.62
2023-04-03T18:11:51.299Z,1.61
2023-04-03T18:14:22.652Z,1.59
2023-04-03T18:16:51.120Z,1.57
2023-04-03T18:19:22.531Z,1.54
2023-04-03T18:21:55.128Z,1.53
2023-04-03T18:24:24.147Z,1.49
2023-04-03T18:27:00.428Z,1.48
2023-04-03T18:29:31.240Z,1.48
2023-04-03T18:32:02.955Z,1.47
2023-04-03T18:34:31.873Z,1.47
2023-04-03T18:37:00.337Z,1.45
2023-04-03T18:39:28.700Z,1.43
2023-04-03T18:41:58.942Z,1.40
2023-04-03T18:44:28.017Z,1.39
2023-04-03T18:47:04.239Z,1.36
2023-04-03T18:49:34.641Z,1.33
2023-04-03T18:52:03.568Z,1.33
2023-04-03T18:54:37.204Z,1.31
2023-04-03T18:57:06.102Z,1.32
2023-04-03T18:59:34.251Z,1.32
2023-04-03T19:02:02.595Z,1.33
2023-04-03T19:04:30.816Z,1.34
2023-04-03T19:06:59.287Z,1.34
2023-04-03T19:09:27.576Z,1.34
2023-04-03T19:11:55.353Z,1.34
2023-04-03T19:14:23.296Z,1.34
2023-04-03T19:16:51.674Z,1.33
2023-04-03T19:19:22.043Z,1.31
2023-04-03T19:21:50.656Z,1.27
2023-04-03T19:24:19.099Z,1.24
2023-04-03T19:26:47.306Z,1.19
2023-04-03T19:29:16.595Z,1.14
2023-04-03T19:31:44.995Z,1.10
2023-04-03T19:34:13.116Z,1.06
2023-04-03T19:36:40.993Z,1.03
2023-04-03T19:39:09.020Z,1.00
2023-04-03T19:41:36.999Z,0.97
2023-04-03T19:44:06.141Z,0.94
2023-04-03T19:46:34.721Z,0.90
2023-04-03T19:49:03.440Z,0.86
2023-04-03T19:51:31.940Z,0.81
2023-04-03T19:53:59.808Z,0.78
2023-04-03T19:56:27.677Z,0.78
2023-04-03T19:58:56.009Z,0.81
2023-04-03T20:01:24.022Z,0.83
2023-04-03T20:03:52.058Z,0.84
2023-04-03T20:06:20.051Z,0.84
2023-04-03T20:08:48.028Z,0.84
2023-04-03T20:11:15.872Z,0.84
2023-04-03T20:13:43.671Z,0.81
2023-04-03T20:16:12.424Z,0.76
2023-04-03T20:18:40.617Z,0.73
2023-04-03T20:21:08.660Z,0.70
2023-04-03T20:23:36.816Z,0.67
2023-04-03T20:26:11.348Z,0.66
2023-04-03T20:28:43.099Z,0.64
2023-04-03T20:31:11.049Z,0.63
2023-04-03T20:33:38.889Z,0.59
2023-04-03T20:36:07.073Z,0.56
2023-04-03T20:38:35.085Z,0.55
2023-04-03T20:41:03.008Z,0.54
2023-04-03T20:43:31.152Z,0.54
2023-04-03T20:46:03.002Z,0.53
2023-04-03T20:48:31.394Z,0.52
2023-04-03T20:50:59.228Z,0.51
2023-04-03T20:53:27.281Z,0.51
2023-04-03T20:55:59.165Z,0.52
2023-04-03T20:58:30.131Z,0.52
2023-04-03T21:00:58.090Z,0.53
2023-04-03T21:03:27.779Z,0.53
2023-04-03T21:05:58.579Z,0.53
2023-04-03T21:08:45.691Z,0.52
2023-04-03T21:11:32.408Z,0.52
2023-04-03T21:14:19.266Z,0.50
2023-04-03T21:16:47.050Z,0.48
2023-04-03T21:19:21.105Z,0.47
2023-04-03T21:21:49.001Z,0.46
2023-04-03T21:24:17.486Z,0.45
2023-04-03T21:26:45.825Z,0.44
2023-04-03T21:29:14.448Z,0.41
2023-04-03T21:31:55.886Z,0.37
2023-04-03T21:34:29.708Z,0.35
2023-04-03T21:37:01.411Z,0.32
2023-04-03T21:39:29.732Z,0.31
2023-04-03T21:42:00.404Z,0.30
2023-04-03T21:44:28.501Z,0.28
2023-04-03T21:46:59.774Z,0.27
2023-04-03T21:49:27.986Z,0.26
2023-04-03T21:51:55.740Z,0.24
2023-04-03T21:54:24.497Z,0.21
2023-04-03T21:56:52.560Z,0.17
2023-04-03T21:59:20.567Z,0.14
2023-04-03T22:01:48.812Z,0.11
2023-04-03T22:04:16.622Z,0.09
2023-04-03T22:06:46.920Z,0.08
2023-04-03T22:09:15.051Z,0.08
2023-04-03T22:11:56.262Z,0.08
2023-04-03T22:14:26.751Z,0.07
2023-04-03T22:16:59.762Z,0.08
2023-04-03T22:19:27.738Z,0.07
2023-04-03T22:21:55.573Z,0.05
2023-04-03T22:24:43.867Z,0.03
2023-04-03T22:27:11.804Z,0.01
2023-04-03T22:29:39.700Z,-0.00
2023-04-03T22:32:07.772Z,-0.04
2023-04-03T22:34:38.409Z,-0.07
2023-04-03T22:37:06.177Z,-0.09
2023-04-03T22:39:34.049Z,-0.11
2023-04-03T22:42:02.477Z,-0.13
2023-04-03T22:44:36.117Z,-0.15
2023-04-03T22:47:04.453Z,-0.17
2023-04-03T22:49:32.274Z,-0.21
2023-04-03T22:51:59.964Z,-0.23
2023-04-03T22:54:27.762Z,-0.26
2023-04-03T22:56:55.517Z,-0.29
2023-04-03T22:59:23.230Z,-0.31
2023-04-03T23:01:51.022Z,-0.34
2023-04-03T23:04:18.832Z,-0.37
2023-04-03T23:06:46.661Z,-0.40
2023-04-03T23:09:14.575Z,-0.41
2023-04-03T23:11:42.293Z,-0.43
2023-04-03T23:14:09.991Z,-0.45
2023-04-03T23:16:37.777Z,-0.46
2023-04-03T23:19:05.464Z,-0.47
2023-04-03T23:21:33.153Z,-0.47
2023-04-03T23:24:00.904Z,-0.48
2023-04-03T23:26:28.581Z,-0.50
2023-04-03T23:28:56.471Z,-0.52
2023-04-03T23:31:24.266Z,-0.53
2023-04-03T23:33:52.099Z,-0.55
2023-04-03T23:36:19.826Z,-0.56
2023-04-03T23:38:47.600Z,-0.57
2023-04-03T23:41:15.267Z,-0.59
2023-04-03T23:43:43.100Z,-0.63
2023-04-03T23:46:10.999Z,-0.69
2023-04-03T23:48:38.702Z,-0.76
2023-04-03T23:51:06.490Z,-0.83
2023-04-03T23:53:34.202Z,-0.90
2023-04-03T23:56:01.939Z,-0.95
2023-04-03T23:58:29.634Z,-0.98
